Dease Lake, Canada
Current Conditions -  °F | °C
As of 7:00 AM on Wednesday 26 Nov 2014 (Local Time) from CYDL Reporting Station
Overcast Overcast  
Wind Chill: 21°   Ceiling: 500
Heat Index: 21°   Visibility: 9mi
Dew Point: 21°   Wind: 0mph
Humidity: 100%   Direction: NA
Pressure: 30.12"   Gusts: NA
Location:  58.44°N, 129.99°W
Report Text: CYDL 261500Z AUTO 00000KT 9SM OVC005 M06/M06 A3012 RMK SLP237
Loading
Personal Weather Stations






























Interactive Weather Map New forecast layout! Learn more

10-Day Weather Forecast

Advertisements
Track Severe Weather on mobile